sensor_id;sensor_type;location;lat;lon;timestamp;P1;durP1;ratioP1;P2;durP2;ratioP2
65279;SDS011;51878;55.748;48.742;2023-08-08T00:02:19;3.28;;;2.03;;
65279;SDS011;51878;55.748;48.742;2023-08-08T00:07:21;5.25;;;2.00;;
65279;SDS011;51878;55.748;48.742;2023-08-08T00:12:23;2.92;;;2.00;;
65279;SDS011;51878;55.748;48.742;2023-08-08T00:17:26;2.10;;;1.95;;
65279;SDS011;51878;55.748;48.742;2023-08-08T00:22:28;3.05;;;2.00;;
65279;SDS011;51878;55.748;48.742;2023-08-08T00:27:31;3.47;;;1.95;;
65279;SDS011;51878;55.748;48.742;2023-08-08T00:32:33;3.17;;;2.08;;
65279;SDS011;51878;55.748;48.742;2023-08-08T00:37:35;4.15;;;1.95;;
65279;SDS011;51878;55.748;48.742;2023-08-08T00:42:37;4.07;;;2.10;;
65279;SDS011;51878;55.748;48.742;2023-08-08T00:47:40;2.47;;;2.22;;
65279;SDS011;51878;55.748;48.742;2023-08-08T00:52:42;4.95;;;2.10;;
65279;SDS011;51878;55.748;48.742;2023-08-08T00:57:45;2.45;;;2.10;;
65279;SDS011;51878;55.748;48.742;2023-08-08T01:02:48;3.42;;;2.15;;
65279;SDS011;51878;55.748;48.742;2023-08-08T01:08:03;4.30;;;2.10;;
65279;SDS011;51878;55.748;48.742;2023-08-08T01:13:15;2.88;;;2.30;;
65279;SDS011;51878;55.748;48.742;2023-08-08T01:18:21;3.92;;;2.10;;
65279;SDS011;51878;55.748;48.742;2023-08-08T01:28:30;3.85;;;2.40;;
65279;SDS011;51878;55.748;48.742;2023-08-08T01:33:33;3.70;;;2.15;;
65279;SDS011;51878;55.748;48.742;2023-08-08T01:38:38;2.72;;;2.45;;
65279;SDS011;51878;55.748;48.742;2023-08-08T01:43:46;3.08;;;2.45;;
65279;SDS011;51878;55.748;48.742;2023-08-08T01:48:49;4.65;;;2.60;;
65279;SDS011;51878;55.748;48.742;2023-08-08T01:53:51;3.53;;;2.90;;
65279;SDS011;51878;55.748;48.742;2023-08-08T01:58:59;6.43;;;3.30;;
65279;SDS011;51878;55.748;48.742;2023-08-08T02:04:02;6.05;;;3.60;;
65279;SDS011;51878;55.748;48.742;2023-08-08T02:09:04;7.05;;;3.75;;
65279;SDS011;51878;55.748;48.742;2023-08-08T02:14:07;7.63;;;4.22;;
65279;SDS011;51878;55.748;48.742;2023-08-08T02:19:10;7.68;;;4.68;;
65279;SDS011;51878;55.748;48.742;2023-08-08T02:24:12;7.35;;;5.18;;
65279;SDS011;51878;55.748;48.742;2023-08-08T02:29:14;7.47;;;4.72;;
65279;SDS011;51878;55.748;48.742;2023-08-08T02:34:16;10.40;;;5.50;;
65279;SDS011;51878;55.748;48.742;2023-08-08T02:39:19;8.93;;;4.82;;
65279;SDS011;51878;55.748;48.742;2023-08-08T02:44:21;9.73;;;4.45;;
65279;SDS011;51878;55.748;48.742;2023-08-08T02:49:24;10.95;;;4.13;;
65279;SDS011;51878;55.748;48.742;2023-08-08T02:54:26;8.02;;;4.22;;
65279;SDS011;51878;55.748;48.742;2023-08-08T02:59:28;7.47;;;3.35;;
65279;SDS011;51878;55.748;48.742;2023-08-08T03:04:31;5.90;;;3.38;;
65279;SDS011;51878;55.748;48.742;2023-08-08T03:09:33;8.05;;;3.22;;
65279;SDS011;51878;55.748;48.742;2023-08-08T03:14:35;3.97;;;3.22;;
65279;SDS011;51878;55.748;48.742;2023-08-08T03:19:38;6.28;;;3.30;;
65279;SDS011;51878;55.748;48.742;2023-08-08T03:24:40;8.27;;;3.67;;
65279;SDS011;51878;55.748;48.742;2023-08-08T03:29:44;7.90;;;3.50;;
65279;SDS011;51878;55.748;48.742;2023-08-08T03:34:47;3.90;;;2.95;;
65279;SDS011;51878;55.748;48.742;2023-08-08T03:39:49;6.30;;;3.22;;
65279;SDS011;51878;55.748;48.742;2023-08-08T03:44:51;5.82;;;3.22;;
65279;SDS011;51878;55.748;48.742;2023-08-08T03:49:54;4.70;;;3.08;;
65279;SDS011;51878;55.748;48.742;2023-08-08T03:54:58;8.07;;;3.08;;
65279;SDS011;51878;55.748;48.742;2023-08-08T04:00:01;7.15;;;3.30;;
65279;SDS011;51878;55.748;48.742;2023-08-08T04:05:05;5.57;;;3.53;;
65279;SDS011;51878;55.748;48.742;2023-08-08T04:10:08;10.60;;;3.47;;
65279;SDS011;51878;55.748;48.742;2023-08-08T04:15:10;8.50;;;3.67;;
65279;SDS011;51878;55.748;48.742;2023-08-08T04:20:12;6.18;;;3.40;;
65279;SDS011;51878;55.748;48.742;2023-08-08T04:25:16;7.28;;;4.05;;
65279;SDS011;51878;55.748;48.742;2023-08-08T04:30:20;7.32;;;3.78;;
65279;SDS011;51878;55.748;48.742;2023-08-08T04:35:24;5.80;;;4.00;;
65279;SDS011;51878;55.748;48.742;2023-08-08T04:40:27;6.20;;;3.65;;
65279;SDS011;51878;55.748;48.742;2023-08-08T04:45:29;4.90;;;3.47;;
65279;SDS011;51878;55.748;48.742;2023-08-08T04:50:31;8.25;;;4.18;;
65279;SDS011;51878;55.748;48.742;2023-08-08T04:55:33;7.97;;;4.55;;
65279;SDS011;51878;55.748;48.742;2023-08-08T05:00:36;7.80;;;4.10;;
65279;SDS011;51878;55.748;48.742;2023-08-08T05:05:38;9.27;;;4.55;;
65279;SDS011;51878;55.748;48.742;2023-08-08T05:10:40;9.48;;;6.28;;
65279;SDS011;51878;55.748;48.742;2023-08-08T05:15:43;13.50;;;6.18;;
65279;SDS011;51878;55.748;48.742;2023-08-08T05:20:45;10.60;;;5.80;;
65279;SDS011;51878;55.748;48.742;2023-08-08T05:25:47;10.75;;;4.60;;
65279;SDS011;51878;55.748;48.742;2023-08-08T05:30:49;9.82;;;5.07;;
65279;SDS011;51878;55.748;48.742;2023-08-08T05:35:52;10.05;;;4.10;;
65279;SDS011;51878;55.748;48.742;2023-08-08T05:40:54;10.30;;;3.75;;
65279;SDS011;51878;55.748;48.742;2023-08-08T05:45:56;8.32;;;3.30;;
65279;SDS011;51878;55.748;48.742;2023-08-08T05:51:02;8.45;;;3.65;;
65279;SDS011;51878;55.748;48.742;2023-08-08T05:56:08;10.32;;;2.95;;
65279;SDS011;51878;55.748;48.742;2023-08-08T06:01:10;11.90;;;3.10;;
65279;SDS011;51878;55.748;48.742;2023-08-08T06:06:15;10.05;;;2.63;;
65279;SDS011;51878;55.748;48.742;2023-08-08T06:11:18;6.15;;;2.75;;
65279;SDS011;51878;55.748;48.742;2023-08-08T06:16:21;6.85;;;2.92;;
65279;SDS011;51878;55.748;48.742;2023-08-08T06:21:24;7.75;;;2.78;;
65279;SDS011;51878;55.748;48.742;2023-08-08T06:26:26;4.57;;;2.60;;
65279;SDS011;51878;55.748;48.742;2023-08-08T06:31:29;7.18;;;2.38;;
65279;SDS011;51878;55.748;48.742;2023-08-08T06:36:31;4.65;;;2.45;;
65279;SDS011;51878;55.748;48.742;2023-08-08T06:41:34;3.95;;;2.30;;
65279;SDS011;51878;55.748;48.742;2023-08-08T06:46:36;8.80;;;2.50;;
65279;SDS011;51878;55.748;48.742;2023-08-08T06:51:38;4.20;;;2.40;;
65279;SDS011;51878;55.748;48.742;2023-08-08T06:56:43;5.13;;;2.08;;
65279;SDS011;51878;55.748;48.742;2023-08-08T07:01:45;5.10;;;2.20;;
65279;SDS011;51878;55.748;48.742;2023-08-08T07:06:48;2.45;;;2.10;;
65279;SDS011;51878;55.748;48.742;2023-08-08T07:11:50;4.47;;;1.98;;
65279;SDS011;51878;55.748;48.742;2023-08-08T07:16:54;3.60;;;2.05;;
65279;SDS011;51878;55.748;48.742;2023-08-08T07:21:57;3.63;;;2.00;;
65279;SDS011;51878;55.748;48.742;2023-08-08T07:27:00;4.22;;;2.30;;
65279;SDS011;51878;55.748;48.742;2023-08-08T07:32:02;3.58;;;2.03;;
65279;SDS011;51878;55.748;48.742;2023-08-08T07:37:06;8.63;;;2.80;;
65279;SDS011;51878;55.748;48.742;2023-08-08T07:42:08;3.05;;;2.05;;
65279;SDS011;51878;55.748;48.742;2023-08-08T07:47:10;3.38;;;2.10;;
65279;SDS011;51878;55.748;48.742;2023-08-08T07:52:14;4.18;;;2.00;;
65279;SDS011;51878;55.748;48.742;2023-08-08T07:57:16;2.85;;;1.90;;
65279;SDS011;51878;55.748;48.742;2023-08-08T08:02:21;5.93;;;2.00;;
65279;SDS011;51878;55.748;48.742;2023-08-08T08:07:23;6.05;;;2.00;;
65279;SDS011;51878;55.748;48.742;2023-08-08T08:12:26;5.55;;;2.03;;
65279;SDS011;51878;55.748;48.742;2023-08-08T08:17:30;3.05;;;1.92;;
65279;SDS011;51878;55.748;48.742;2023-08-08T08:22:36;4.40;;;1.90;;
65279;SDS011;51878;55.748;48.742;2023-08-08T08:27:39;5.32;;;1.90;;
65279;SDS011;51878;55.748;48.742;2023-08-08T08:32:43;4.95;;;1.58;;
65279;SDS011;51878;55.748;48.742;2023-08-08T08:37:46;6.53;;;1.83;;
65279;SDS011;51878;55.748;48.742;2023-08-08T08:42:50;5.05;;;1.88;;
65279;SDS011;51878;55.748;48.742;2023-08-08T08:47:53;4.25;;;1.77;;
65279;SDS011;51878;55.748;48.742;2023-08-08T08:52:59;2.42;;;1.65;;
65279;SDS011;51878;55.748;48.742;2023-08-08T08:58:02;3.55;;;1.88;;
65279;SDS011;51878;55.748;48.742;2023-08-08T09:03:05;2.83;;;1.60;;
65279;SDS011;51878;55.748;48.742;2023-08-08T09:08:08;2.65;;;1.60;;
65279;SDS011;51878;55.748;48.742;2023-08-08T09:13:13;2.92;;;1.58;;
65279;SDS011;51878;55.748;48.742;2023-08-08T09:18:16;7.05;;;1.58;;
65279;SDS011;51878;55.748;48.742;2023-08-08T09:23:20;2.53;;;1.73;;
65279;SDS011;51878;55.748;48.742;2023-08-08T09:28:22;7.10;;;1.98;;
65279;SDS011;51878;55.748;48.742;2023-08-08T09:33:27;3.55;;;1.45;;
65279;SDS011;51878;55.748;48.742;2023-08-08T09:38:30;2.08;;;1.50;;
65279;SDS011;51878;55.748;48.742;2023-08-08T09:43:33;3.13;;;1.60;;
65279;SDS011;51878;55.748;48.742;2023-08-08T09:48:35;5.07;;;1.60;;
65279;SDS011;51878;55.748;48.742;2023-08-08T09:53:40;3.88;;;1.60;;
65279;SDS011;51878;55.748;48.742;2023-08-08T09:58:43;2.08;;;1.60;;
65279;SDS011;51878;55.748;48.742;2023-08-08T10:03:48;4.35;;;1.63;;
65279;SDS011;51878;55.748;48.742;2023-08-08T10:08:53;1.85;;;1.50;;
65279;SDS011;51878;55.748;48.742;2023-08-08T10:13:55;4.97;;;1.52;;
65279;SDS011;51878;55.748;48.742;2023-08-08T10:18:59;5.45;;;1.92;;
65279;SDS011;51878;55.748;48.742;2023-08-08T10:24:07;4.10;;;1.80;;
65279;SDS011;51878;55.748;48.742;2023-08-08T10:29:17;3.28;;;1.60;;
65279;SDS011;51878;55.748;48.742;2023-08-08T10:34:21;6.03;;;2.20;;
65279;SDS011;51878;55.748;48.742;2023-08-08T10:39:28;2.72;;;1.50;;
65279;SDS011;51878;55.748;48.742;2023-08-08T10:44:40;3.35;;;1.60;;
65279;SDS011;51878;55.748;48.742;2023-08-08T10:49:55;1.85;;;1.40;;
65279;SDS011;51878;55.748;48.742;2023-08-08T10:55:03;4.57;;;1.63;;
65279;SDS011;51878;55.748;48.742;2023-08-08T11:00:20;3.22;;;1.50;;
65279;SDS011;51878;55.748;48.742;2023-08-08T11:05:30;2.78;;;1.40;;
65279;SDS011;51878;55.748;48.742;2023-08-08T11:10:36;4.03;;;1.50;;
65279;SDS011;51878;55.748;48.742;2023-08-08T11:15:40;3.30;;;1.52;;
65279;SDS011;51878;55.748;48.742;2023-08-08T11:20:43;4.38;;;1.48;;
65279;SDS011;51878;55.748;48.742;2023-08-08T11:25:46;3.17;;;1.45;;
65279;SDS011;51878;55.748;48.742;2023-08-08T11:31:09;3.38;;;1.55;;
65279;SDS011;51878;55.748;48.742;2023-08-08T11:36:13;4.10;;;1.35;;
65279;SDS011;51878;55.748;48.742;2023-08-08T11:41:19;3.40;;;1.42;;
65279;SDS011;51878;55.748;48.742;2023-08-08T11:46:25;3.38;;;1.60;;
65279;SDS011;51878;55.748;48.742;2023-08-08T11:51:27;2.55;;;1.33;;
65279;SDS011;51878;55.748;48.742;2023-08-08T11:56:32;2.13;;;1.50;;
65279;SDS011;51878;55.748;48.742;2023-08-08T12:01:35;4.95;;;1.50;;
65279;SDS011;51878;55.748;48.742;2023-08-08T12:06:38;2.95;;;1.60;;
65279;SDS011;51878;55.748;48.742;2023-08-08T12:11:45;3.47;;;1.52;;
65279;SDS011;51878;55.748;48.742;2023-08-08T12:16:48;5.15;;;1.75;;
65279;SDS011;51878;55.748;48.742;2023-08-08T12:21:51;3.80;;;1.65;;
65279;SDS011;51878;55.748;48.742;2023-08-08T12:26:53;1.63;;;1.52;;
65279;SDS011;51878;55.748;48.742;2023-08-08T12:31:56;2.13;;;1.40;;
65279;SDS011;51878;55.748;48.742;2023-08-08T12:36:58;1.52;;;1.42;;
65279;SDS011;51878;55.748;48.742;2023-08-08T12:42:01;5.55;;;1.60;;
65279;SDS011;51878;55.748;48.742;2023-08-08T12:47:03;3.70;;;1.70;;
65279;SDS011;51878;55.748;48.742;2023-08-08T12:52:05;1.88;;;1.50;;
65279;SDS011;51878;55.748;48.742;2023-08-08T12:57:08;3.90;;;1.40;;
65279;SDS011;51878;55.748;48.742;2023-08-08T13:02:10;2.28;;;1.52;;
65279;SDS011;51878;55.748;48.742;2023-08-08T13:07:13;5.03;;;1.50;;
65279;SDS011;51878;55.748;48.742;2023-08-08T13:12:15;6.95;;;1.60;;
65279;SDS011;51878;55.748;48.742;2023-08-08T13:17:17;3.03;;;1.50;;
65279;SDS011;51878;55.748;48.742;2023-08-08T13:22:19;4.72;;;1.63;;
65279;SDS011;51878;55.748;48.742;2023-08-08T13:27:21;3.00;;;1.55;;
65279;SDS011;51878;55.748;48.742;2023-08-08T13:32:24;3.17;;;1.55;;
65279;SDS011;51878;55.748;48.742;2023-08-08T13:37:26;3.17;;;1.60;;
65279;SDS011;51878;55.748;48.742;2023-08-08T13:42:28;1.92;;;1.70;;
65279;SDS011;51878;55.748;48.742;2023-08-08T13:47:31;5.25;;;1.60;;
65279;SDS011;51878;55.748;48.742;2023-08-08T13:52:33;3.35;;;1.67;;
65279;SDS011;51878;55.748;48.742;2023-08-08T13:57:35;2.90;;;1.98;;
65279;SDS011;51878;55.748;48.742;2023-08-08T14:02:40;2.28;;;1.60;;
65279;SDS011;51878;55.748;48.742;2023-08-08T14:07:43;1.63;;;1.52;;
65279;SDS011;51878;55.748;48.742;2023-08-08T14:12:45;5.15;;;2.00;;
65279;SDS011;51878;55.748;48.742;2023-08-08T14:17:47;3.33;;;1.80;;
65279;SDS011;51878;55.748;48.742;2023-08-08T14:22:49;4.75;;;1.75;;
65279;SDS011;51878;55.748;48.742;2023-08-08T14:27:52;3.95;;;1.55;;
65279;SDS011;51878;55.748;48.742;2023-08-08T14:32:54;7.47;;;2.00;;
65279;SDS011;51878;55.748;48.742;2023-08-08T14:37:57;9.25;;;1.65;;
65279;SDS011;51878;55.748;48.742;2023-08-08T14:42:59;3.25;;;1.73;;
65279;SDS011;51878;55.748;48.742;2023-08-08T14:48:02;8.88;;;2.10;;
65279;SDS011;51878;55.748;48.742;2023-08-08T14:53:04;4.57;;;1.70;;
65279;SDS011;51878;55.748;48.742;2023-08-08T14:58:07;6.07;;;1.90;;
65279;SDS011;51878;55.748;48.742;2023-08-08T15:03:09;3.78;;;2.00;;
65279;SDS011;51878;55.748;48.742;2023-08-08T15:08:12;3.42;;;2.00;;
65279;SDS011;51878;55.748;48.742;2023-08-08T15:13:14;7.47;;;2.40;;
65279;SDS011;51878;55.748;48.742;2023-08-08T15:18:17;9.02;;;2.33;;
65279;SDS011;51878;55.748;48.742;2023-08-08T15:23:19;4.80;;;1.70;;
65279;SDS011;51878;55.748;48.742;2023-08-08T15:28:21;9.95;;;2.63;;
65279;SDS011;51878;55.748;48.742;2023-08-08T15:33:23;4.15;;;2.20;;
65279;SDS011;51878;55.748;48.742;2023-08-08T15:38:26;4.13;;;1.98;;
65279;SDS011;51878;55.748;48.742;2023-08-08T15:43:28;6.15;;;1.80;;
65279;SDS011;51878;55.748;48.742;2023-08-08T15:48:32;6.55;;;1.70;;
65279;SDS011;51878;55.748;48.742;2023-08-08T15:53:34;6.35;;;1.98;;
65279;SDS011;51878;55.748;48.742;2023-08-08T15:58:37;2.35;;;1.73;;
65279;SDS011;51878;55.748;48.742;2023-08-08T16:03:39;5.05;;;1.58;;
65279;SDS011;51878;55.748;48.742;2023-08-08T16:08:41;6.57;;;2.00;;
65279;SDS011;51878;55.748;48.742;2023-08-08T16:13:43;6.90;;;1.80;;
65279;SDS011;51878;55.748;48.742;2023-08-08T16:18:46;3.55;;;2.00;;
65279;SDS011;51878;55.748;48.742;2023-08-08T16:23:48;5.70;;;1.90;;
65279;SDS011;51878;55.748;48.742;2023-08-08T16:28:51;6.53;;;2.03;;
65279;SDS011;51878;55.748;48.742;2023-08-08T16:33:53;4.57;;;2.03;;
65279;SDS011;51878;55.748;48.742;2023-08-08T16:38:55;4.38;;;2.25;;
65279;SDS011;51878;55.748;48.742;2023-08-08T16:44:13;3.58;;;2.00;;
65279;SDS011;51878;55.748;48.742;2023-08-08T16:49:16;10.93;;;2.45;;
65279;SDS011;51878;55.748;48.742;2023-08-08T16:54:18;7.28;;;2.10;;
65279;SDS011;51878;55.748;48.742;2023-08-08T16:59:24;5.55;;;2.22;;
65279;SDS011;51878;55.748;48.742;2023-08-08T17:05:06;10.60;;;2.25;;
65279;SDS011;51878;55.748;48.742;2023-08-08T17:10:09;8.57;;;2.20;;
65279;SDS011;51878;55.748;48.742;2023-08-08T17:15:11;4.75;;;2.40;;
65279;SDS011;51878;55.748;48.742;2023-08-08T17:20:13;8.57;;;2.10;;
65279;SDS011;51878;55.748;48.742;2023-08-08T17:25:16;4.45;;;2.25;;
65279;SDS011;51878;55.748;48.742;2023-08-08T17:30:18;6.55;;;2.10;;
65279;SDS011;51878;55.748;48.742;2023-08-08T17:35:21;4.78;;;2.33;;
65279;SDS011;51878;55.748;48.742;2023-08-08T17:40:24;7.00;;;2.30;;
65279;SDS011;51878;55.748;48.742;2023-08-08T17:45:26;8.57;;;2.50;;
65279;SDS011;51878;55.748;48.742;2023-08-08T17:50:28;4.68;;;2.78;;
65279;SDS011;51878;55.748;48.742;2023-08-08T17:55:32;8.82;;;2.72;;
65279;SDS011;51878;55.748;48.742;2023-08-08T18:00:34;11.30;;;3.10;;
65279;SDS011;51878;55.748;48.742;2023-08-08T18:05:37;9.85;;;3.35;;
65279;SDS011;51878;55.748;48.742;2023-08-08T18:10:42;10.85;;;3.58;;
65279;SDS011;51878;55.748;48.742;2023-08-08T18:15:51;8.98;;;4.43;;
65279;SDS011;51878;55.748;48.742;2023-08-08T18:20:56;15.80;;;4.40;;
65279;SDS011;51878;55.748;48.742;2023-08-08T18:26:05;15.55;;;4.82;;
65279;SDS011;51878;55.748;48.742;2023-08-08T18:31:10;14.05;;;4.72;;
65279;SDS011;51878;55.748;48.742;2023-08-08T18:36:21;12.43;;;5.15;;
65279;SDS011;51878;55.748;48.742;2023-08-08T18:41:26;9.25;;;4.82;;
65279;SDS011;51878;55.748;48.742;2023-08-08T18:46:28;8.85;;;4.68;;
65279;SDS011;51878;55.748;48.742;2023-08-08T18:51:36;13.25;;;4.10;;
65279;SDS011;51878;55.748;48.742;2023-08-08T18:56:44;12.18;;;4.25;;
65279;SDS011;51878;55.748;48.742;2023-08-08T19:01:49;14.10;;;3.85;;
65279;SDS011;51878;55.748;48.742;2023-08-08T19:06:52;8.88;;;4.13;;
65279;SDS011;51878;55.748;48.742;2023-08-08T19:11:54;12.35;;;3.72;;
65279;SDS011;51878;55.748;48.742;2023-08-08T19:16:56;7.32;;;3.78;;
65279;SDS011;51878;55.748;48.742;2023-08-08T19:21:58;6.20;;;3.58;;
65279;SDS011;51878;55.748;48.742;2023-08-08T19:27:01;7.97;;;3.60;;
65279;SDS011;51878;55.748;48.742;2023-08-08T19:32:03;7.80;;;3.40;;
65279;SDS011;51878;55.748;48.742;2023-08-08T19:37:05;8.02;;;3.58;;
65279;SDS011;51878;55.748;48.742;2023-08-08T19:42:08;5.32;;;3.40;;
65279;SDS011;51878;55.748;48.742;2023-08-08T19:47:10;11.18;;;3.28;;
65279;SDS011;51878;55.748;48.742;2023-08-08T19:52:12;6.45;;;3.05;;
65279;SDS011;51878;55.748;48.742;2023-08-08T19:57:15;10.57;;;3.25;;
65279;SDS011;51878;55.748;48.742;2023-08-08T20:02:17;9.43;;;3.53;;
65279;SDS011;51878;55.748;48.742;2023-08-08T20:07:19;8.90;;;2.95;;
65279;SDS011;51878;55.748;48.742;2023-08-08T20:12:22;5.53;;;3.08;;
65279;SDS011;51878;55.748;48.742;2023-08-08T20:17:24;6.05;;;3.08;;
65279;SDS011;51878;55.748;48.742;2023-08-08T20:22:26;9.32;;;3.55;;
65279;SDS011;51878;55.748;48.742;2023-08-08T20:27:29;7.32;;;3.58;;
65279;SDS011;51878;55.748;48.742;2023-08-08T20:32:31;10.43;;;3.60;;
65279;SDS011;51878;55.748;48.742;2023-08-08T20:37:34;4.25;;;3.42;;
65279;SDS011;51878;55.748;48.742;2023-08-08T20:42:36;7.05;;;3.70;;
65279;SDS011;51878;55.748;48.742;2023-08-08T20:47:38;7.15;;;4.03;;
65279;SDS011;51878;55.748;48.742;2023-08-08T20:52:41;9.85;;;3.72;;
65279;SDS011;51878;55.748;48.742;2023-08-08T20:57:45;6.63;;;3.95;;
65279;SDS011;51878;55.748;48.742;2023-08-08T21:02:47;8.95;;;4.00;;
65279;SDS011;51878;55.748;48.742;2023-08-08T21:07:50;5.53;;;3.78;;
65279;SDS011;51878;55.748;48.742;2023-08-08T21:12:52;7.80;;;4.07;;
65279;SDS011;51878;55.748;48.742;2023-08-08T21:17:55;8.68;;;3.85;;
65279;SDS011;51878;55.748;48.742;2023-08-08T21:22:57;10.05;;;3.95;;
65279;SDS011;51878;55.748;48.742;2023-08-08T21:27:59;5.63;;;3.67;;
65279;SDS011;51878;55.748;48.742;2023-08-08T21:33:02;7.35;;;4.07;;
65279;SDS011;51878;55.748;48.742;2023-08-08T21:38:05;8.43;;;4.25;;
65279;SDS011;51878;55.748;48.742;2023-08-08T21:43:12;5.60;;;3.80;;
65279;SDS011;51878;55.748;48.742;2023-08-08T21:48:14;5.25;;;4.00;;
65279;SDS011;51878;55.748;48.742;2023-08-08T21:53:16;5.95;;;4.07;;
65279;SDS011;51878;55.748;48.742;2023-08-08T21:58:18;11.90;;;4.50;;
65279;SDS011;51878;55.748;48.742;2023-08-08T22:03:20;5.22;;;4.28;;
65279;SDS011;51878;55.748;48.742;2023-08-08T22:08:25;5.18;;;3.80;;
65279;SDS011;51878;55.748;48.742;2023-08-08T22:13:27;5.13;;;3.88;;
65279;SDS011;51878;55.748;48.742;2023-08-08T22:18:30;5.40;;;4.20;;
65279;SDS011;51878;55.748;48.742;2023-08-08T22:23:32;6.40;;;4.10;;
65279;SDS011;51878;55.748;48.742;2023-08-08T22:28:34;6.43;;;4.40;;
65279;SDS011;51878;55.748;48.742;2023-08-08T22:33:37;6.40;;;4.35;;
65279;SDS011;51878;55.748;48.742;2023-08-08T22:38:39;5.05;;;3.67;;
65279;SDS011;51878;55.748;48.742;2023-08-08T22:43:41;5.47;;;4.35;;
65279;SDS011;51878;55.748;48.742;2023-08-08T22:48:43;8.07;;;4.28;;
65279;SDS011;51878;55.748;48.742;2023-08-08T22:53:46;6.88;;;4.55;;
65279;SDS011;51878;55.748;48.742;2023-08-08T22:58:48;7.78;;;4.60;;
65279;SDS011;51878;55.748;48.742;2023-08-08T23:03:50;6.45;;;3.95;;
65279;SDS011;51878;55.748;48.742;2023-08-08T23:08:53;8.13;;;4.18;;
65279;SDS011;51878;55.748;48.742;2023-08-08T23:13:55;5.65;;;4.20;;
65279;SDS011;51878;55.748;48.742;2023-08-08T23:18:57;6.03;;;4.05;;
65279;SDS011;51878;55.748;48.742;2023-08-08T23:23:59;6.40;;;3.83;;
65279;SDS011;51878;55.748;48.742;2023-08-08T23:29:05;4.32;;;3.72;;
65279;SDS011;51878;55.748;48.742;2023-08-08T23:34:07;6.95;;;4.05;;
65279;SDS011;51878;55.748;48.742;2023-08-08T23:39:10;10.40;;;4.47;;
65279;SDS011;51878;55.748;48.742;2023-08-08T23:44:13;6.90;;;4.32;;
65279;SDS011;51878;55.748;48.742;2023-08-08T23:49:15;5.88;;;4.47;;
65279;SDS011;51878;55.748;48.742;2023-08-08T23:54:19;6.28;;;4.15;;
65279;SDS011;51878;55.748;48.742;2023-08-08T23:59:21;4.90;;;3.88;;
